createdAt,value
2022-12-22T00:00:14.924Z,1003.45
2022-12-22T00:01:14.915Z,1003.45
2022-12-22T00:02:15.173Z,1003.42
2022-12-22T00:03:15.198Z,1003.49
2022-12-22T00:04:15.078Z,1003.51
2022-12-22T00:05:14.853Z,1003.52
2022-12-22T00:06:14.843Z,1003.47
2022-12-22T00:07:14.830Z,1003.48
2022-12-22T00:08:14.827Z,1003.41
2022-12-22T00:09:14.807Z,1003.39
2022-12-22T00:10:14.802Z,1003.44
2022-12-22T00:11:14.804Z,1003.55
2022-12-22T00:12:14.771Z,1003.59
2022-12-22T00:13:14.769Z,1003.56
2022-12-22T00:14:14.757Z,1003.61
2022-12-22T00:15:14.747Z,1003.62
2022-12-22T00:16:14.816Z,1003.59
2022-12-22T00:17:14.777Z,1003.52
2022-12-22T00:18:14.707Z,1003.50
2022-12-22T00:19:14.728Z,1003.47
2022-12-22T00:20:18.528Z,1003.43
2022-12-22T00:21:14.683Z,1003.31
2022-12-22T00:22:14.673Z,1003.36
2022-12-22T00:23:14.655Z,1003.45
2022-12-22T00:24:14.647Z,1003.41
2022-12-22T00:25:14.633Z,1003.43
2022-12-22T00:26:14.623Z,1003.42
2022-12-22T00:27:14.611Z,1003.41
2022-12-22T00:28:14.601Z,1003.42
2022-12-22T00:29:14.588Z,1003.42
2022-12-22T00:30:14.574Z,1003.40
2022-12-22T00:31:14.659Z,1003.41
2022-12-22T00:32:14.571Z,1003.36
2022-12-22T00:33:14.544Z,1003.40
2022-12-22T00:34:14.539Z,1003.39
2022-12-22T00:35:14.549Z,1003.43
2022-12-22T00:36:14.514Z,1003.40
2022-12-22T00:37:14.512Z,1003.41
2022-12-22T00:38:14.488Z,1003.51
2022-12-22T00:39:14.483Z,1003.40
2022-12-22T00:40:14.459Z,1003.41
2022-12-22T00:41:14.455Z,1003.34
2022-12-22T00:42:14.447Z,1003.37
2022-12-22T00:43:14.435Z,1003.34
2022-12-22T00:44:14.425Z,1003.33
2022-12-22T00:45:14.410Z,1003.34
2022-12-22T00:46:14.557Z,1003.25
2022-12-22T00:47:14.380Z,1003.27
2022-12-22T00:48:14.383Z,1003.22
2022-12-22T00:49:14.367Z,1003.19
2022-12-22T00:50:14.356Z,1003.19
2022-12-22T00:51:14.377Z,1003.12
2022-12-22T00:52:14.334Z,1003.17
2022-12-22T00:53:14.330Z,1003.13
2022-12-22T00:54:14.318Z,1003.22
2022-12-22T00:55:14.304Z,1003.16
2022-12-22T00:56:14.283Z,1003.13
2022-12-22T00:57:14.274Z,1003.15
2022-12-22T00:58:14.263Z,1003.15
2022-12-22T00:59:14.251Z,1003.21
2022-12-22T01:00:14.249Z,1003.10
2022-12-22T01:01:14.298Z,1003.09
2022-12-22T01:02:14.502Z,1003.08
2022-12-22T01:03:14.448Z,1003.06
2022-12-22T01:04:14.205Z,1003.08
2022-12-22T01:05:14.197Z,1003.13
2022-12-22T01:06:14.184Z,1003.13
2022-12-22T01:07:14.192Z,1003.16
2022-12-22T01:08:14.156Z,1003.22
2022-12-22T01:09:14.137Z,1003.19
2022-12-22T01:10:14.131Z,1003.15
2022-12-22T01:11:14.120Z,1003.17
2022-12-22T01:12:14.120Z,1003.16
2022-12-22T01:13:14.093Z,1003.19
2022-12-22T01:14:14.084Z,1003.12
2022-12-22T01:15:14.072Z,1003.08
2022-12-22T01:16:14.212Z,1003.09
2022-12-22T01:17:14.045Z,1003.16
2022-12-22T01:18:14.035Z,1003.15
2022-12-22T01:19:14.030Z,1003.13
2022-12-22T01:20:14.014Z,1003.06
2022-12-22T01:21:14.007Z,1003.11
2022-12-22T01:22:13.999Z,1003.10
2022-12-22T01:23:14.004Z,1003.07
2022-12-22T01:24:13.971Z,1003.07
2022-12-22T01:25:13.956Z,1003.03
2022-12-22T01:26:13.965Z,1002.99
2022-12-22T01:27:13.930Z,1003.04
2022-12-22T01:28:13.920Z,1003.01
2022-12-22T01:29:13.909Z,1002.95
2022-12-22T01:30:13.913Z,1002.95
2022-12-22T01:31:13.965Z,1002.91
2022-12-22T01:32:13.873Z,1002.91
2022-12-22T01:33:13.867Z,1002.93
2022-12-22T01:34:13.865Z,1002.89
2022-12-22T01:35:13.840Z,1002.92
2022-12-22T01:36:13.829Z,1002.90
2022-12-22T01:37:13.823Z,1002.83
2022-12-22T01:38:13.821Z,1002.83
2022-12-22T01:39:13.820Z,1002.77
2022-12-22T01:40:13.795Z,1002.78
2022-12-22T01:41:13.782Z,1002.85
2022-12-22T01:42:13.769Z,1002.77
2022-12-22T01:43:13.760Z,1002.84
2022-12-22T01:44:13.744Z,1002.76
2022-12-22T01:45:13.735Z,1002.69
2022-12-22T01:46:13.784Z,1002.65
2022-12-22T01:47:13.714Z,1002.63
2022-12-22T01:48:13.693Z,1002.63
2022-12-22T01:49:13.693Z,1002.63
2022-12-22T01:50:13.669Z,1002.68
2022-12-22T01:51:13.673Z,1002.57
2022-12-22T01:52:13.647Z,1002.60
2022-12-22T01:53:19.661Z,1002.56
2022-12-22T01:54:13.630Z,1002.54
2022-12-22T01:55:13.655Z,1002.52
2022-12-22T01:56:13.601Z,1002.53
2022-12-22T01:57:13.590Z,1002.50
2022-12-22T01:58:13.580Z,1002.56
2022-12-22T01:59:13.640Z,1002.60
2022-12-22T02:00:13.571Z,1002.56
2022-12-22T02:01:13.608Z,1002.50
2022-12-22T02:02:13.686Z,1002.48
2022-12-22T02:03:13.570Z,1002.47
2022-12-22T02:04:13.517Z,1002.45
2022-12-22T02:05:13.518Z,1002.45
2022-12-22T02:06:13.496Z,1002.38
2022-12-22T02:07:13.482Z,1002.40
2022-12-22T02:08:13.483Z,1002.37
2022-12-22T02:09:13.457Z,1002.37
2022-12-22T02:10:13.462Z,1002.39
2022-12-22T02:11:13.452Z,1002.37
2022-12-22T02:12:13.426Z,1002.36
2022-12-22T02:13:13.420Z,1002.41
2022-12-22T02:14:13.406Z,1002.39
2022-12-22T02:15:13.393Z,1002.37
2022-12-22T02:16:13.447Z,1002.34
2022-12-22T02:17:13.375Z,1002.39
2022-12-22T02:18:13.359Z,1002.32
2022-12-22T02:19:13.361Z,1002.32
2022-12-22T02:20:13.354Z,1002.30
2022-12-22T02:21:13.382Z,1002.26
2022-12-22T02:22:13.326Z,1002.31
2022-12-22T02:23:13.373Z,1002.24
2022-12-22T02:24:13.306Z,1002.27
2022-12-22T02:25:13.273Z,1002.26
2022-12-22T02:26:13.293Z,1002.29
2022-12-22T02:27:13.281Z,1002.20
2022-12-22T02:28:13.245Z,1002.21
2022-12-22T02:29:13.256Z,1002.21
2022-12-22T02:30:13.230Z,1002.20
2022-12-22T02:31:13.319Z,1002.22
2022-12-22T02:32:13.199Z,1002.09
2022-12-22T02:33:13.184Z,1002.16
2022-12-22T02:34:13.171Z,1002.06
2022-12-22T02:35:13.166Z,1002.08
2022-12-22T02:36:13.158Z,1002.01
2022-12-22T02:37:13.143Z,1002.01
2022-12-22T02:38:13.147Z,1001.96
2022-12-22T02:39:13.128Z,1001.95
2022-12-22T02:40:13.103Z,1001.98
2022-12-22T02:41:13.094Z,1001.98
2022-12-22T02:42:13.087Z,1001.89
2022-12-22T02:43:13.145Z,1001.86
2022-12-22T02:44:13.056Z,1001.90
2022-12-22T02:45:13.044Z,1001.88
2022-12-22T02:46:13.082Z,1001.84
2022-12-22T02:47:13.045Z,1001.90
2022-12-22T02:48:13.012Z,1001.88
2022-12-22T02:49:12.998Z,1001.84
2022-12-22T02:50:12.992Z,1001.82
2022-12-22T02:51:12.989Z,1001.75
2022-12-22T02:52:12.979Z,1001.77
2022-12-22T02:53:12.959Z,1001.79
2022-12-22T02:54:12.950Z,1001.76
2022-12-22T02:55:12.953Z,1001.76
2022-12-22T02:56:12.927Z,1001.72
2022-12-22T02:57:12.916Z,1001.77
2022-12-22T02:58:12.918Z,1001.78
2022-12-22T02:59:12.920Z,1001.76
2022-12-22T03:00:12.889Z,1001.80
2022-12-22T03:01:12.866Z,1001.75
2022-12-22T03:02:13.003Z,1001.76
2022-12-22T03:03:13.054Z,1001.78
2022-12-22T03:04:12.841Z,1001.68
2022-12-22T03:05:12.824Z,1001.71
2022-12-22T03:06:12.823Z,1001.63
2022-12-22T03:07:12.819Z,1001.68
2022-12-22T03:08:12.812Z,1001.66
2022-12-22T03:09:12.790Z,1001.62
2022-12-22T03:10:12.761Z,1001.59
2022-12-22T03:11:12.749Z,1001.57
2022-12-22T03:12:12.760Z,1001.67
2022-12-22T03:13:12.754Z,1001.59
2022-12-22T03:14:12.744Z,1001.63
2022-12-22T03:15:12.734Z,1001.62
2022-12-22T03:16:12.820Z,1001.62
2022-12-22T03:17:12.691Z,1001.63
2022-12-22T03:18:12.683Z,1001.66
2022-12-22T03:19:12.688Z,1001.72
2022-12-22T03:20:12.667Z,1001.68
2022-12-22T03:21:12.644Z,1001.68
2022-12-22T03:22:12.647Z,1001.62
2022-12-22T03:23:12.623Z,1001.65
2022-12-22T03:24:12.616Z,1001.66
2022-12-22T03:25:12.598Z,1001.62
2022-12-22T03:26:12.588Z,1001.66
2022-12-22T03:27:12.577Z,1001.55
2022-12-22T03:28:12.573Z,1001.55
2022-12-22T03:29:12.561Z,1001.58
2022-12-22T03:30:12.550Z,1001.56
2022-12-22T03:31:12.650Z,1001.55
2022-12-22T03:32:12.517Z,1001.48
2022-12-22T03:33:12.508Z,1001.45
2022-12-22T03:34:12.495Z,1001.50
2022-12-22T03:35:12.502Z,1001.47
2022-12-22T03:36:12.466Z,1001.53
2022-12-22T03:37:12.475Z,1001.48
2022-12-22T03:38:12.464Z,1001.45
2022-12-22T03:39:12.457Z,1001.41
2022-12-22T03:40:12.426Z,1001.38
2022-12-22T03:41:12.416Z,1001.40
2022-12-22T03:42:12.411Z,1001.45
2022-12-22T03:43:12.396Z,1001.47
2022-12-22T03:44:12.384Z,1001.41
2022-12-22T03:45:12.369Z,1001.44
2022-12-22T03:46:12.357Z,1001.44
2022-12-22T03:47:12.440Z,1001.39
2022-12-22T03:48:12.334Z,1001.41
2022-12-22T03:49:12.600Z,1001.34
2022-12-22T03:50:12.326Z,1001.35
2022-12-22T03:51:12.300Z,1001.35
2022-12-22T03:52:12.292Z,1001.34
2022-12-22T03:53:12.281Z,1001.31
2022-12-22T03:54:12.266Z,1001.32
2022-12-22T03:55:12.254Z,1001.28
2022-12-22T03:56:12.245Z,1001.28
2022-12-22T03:57:12.227Z,1001.31
2022-12-22T03:58:12.220Z,1001.30
2022-12-22T03:59:12.200Z,1001.27
2022-12-22T04:00:12.207Z,1001.19
2022-12-22T04:01:12.267Z,1001.19
2022-12-22T04:02:12.325Z,1001.17
2022-12-22T04:03:12.381Z,1001.13
2022-12-22T04:04:12.144Z,1001.11
2022-12-22T04:05:12.145Z,1001.08
2022-12-22T04:06:12.124Z,1001.05
2022-12-22T04:07:12.119Z,1001.04
2022-12-22T04:08:12.113Z,1001.04
2022-12-22T04:09:12.093Z,1000.94
2022-12-22T04:10:12.080Z,1000.98
2022-12-22T04:11:12.081Z,1000.95
2022-12-22T04:12:12.064Z,1000.90
2022-12-22T04:13:12.069Z,1000.91
2022-12-22T04:14:12.040Z,1000.92
2022-12-22T04:15:12.035Z,1000.91
2022-12-22T04:16:12.075Z,1000.90
2022-12-22T04:17:12.026Z,1000.88
2022-12-22T04:18:11.993Z,1000.87
2022-12-22T04:19:12.009Z,1000.85
2022-12-22T04:20:11.967Z,1000.89
2022-12-22T04:21:11.966Z,1000.83
2022-12-22T04:22:11.948Z,1000.89
2022-12-22T04:23:11.946Z,1000.83
2022-12-22T04:24:11.930Z,1000.77
2022-12-22T04:25:11.919Z,1000.84
2022-12-22T04:26:11.914Z,1000.80
2022-12-22T04:27:11.886Z,1000.87
2022-12-22T04:28:11.881Z,1000.87
2022-12-22T04:29:11.864Z,1000.90
2022-12-22T04:30:11.866Z,1000.87
2022-12-22T04:31:11.840Z,1000.89
2022-12-22T04:32:11.880Z,1000.93
2022-12-22T04:33:11.824Z,1000.88
2022-12-22T04:34:11.812Z,1000.83
2022-12-22T04:35:11.820Z,1000.88
2022-12-22T04:36:11.792Z,1000.80
2022-12-22T04:37:17.256Z,1000.80
2022-12-22T04:38:11.762Z,1000.78
2022-12-22T04:39:11.759Z,1000.78
2022-12-22T04:40:11.759Z,1000.72
2022-12-22T04:41:11.738Z,1000.66
2022-12-22T04:42:11.731Z,1000.66
2022-12-22T04:43:11.711Z,1000.72
2022-12-22T04:44:11.703Z,1000.67
2022-12-22T04:45:11.703Z,1000.72
2022-12-22T04:46:11.764Z,1000.68
2022-12-22T04:47:11.674Z,1000.68
2022-12-22T04:48:11.652Z,1000.63
2022-12-22T04:49:11.639Z,1000.70
2022-12-22T04:50:11.640Z,1000.61
2022-12-22T04:51:11.661Z,1000.63
2022-12-22T04:52:11.602Z,1000.57
2022-12-22T04:53:11.605Z,1000.57
2022-12-22T04:54:11.598Z,1000.58
2022-12-22T04:55:11.581Z,1000.59
2022-12-22T04:56:11.560Z,1000.59
2022-12-22T04:57:11.546Z,1000.63
2022-12-22T04:58:11.536Z,1000.58
2022-12-22T04:59:11.529Z,1000.58
2022-12-22T05:00:11.530Z,1000.56
2022-12-22T05:01:11.547Z,1000.48
2022-12-22T05:02:11.627Z,1000.54
2022-12-22T05:03:11.593Z,1000.45
2022-12-22T05:04:11.479Z,1000.41
2022-12-22T05:05:11.461Z,1000.37
2022-12-22T05:06:11.464Z,1000.34
2022-12-22T05:07:11.465Z,1000.30
2022-12-22T05:08:11.420Z,1000.38
2022-12-22T05:09:11.430Z,1000.41
2022-12-22T05:10:11.402Z,1000.38
2022-12-22T05:11:11.390Z,1000.39
2022-12-22T05:12:11.381Z,1000.36
2022-12-22T05:13:11.375Z,1000.37
2022-12-22T05:14:11.359Z,1000.31
2022-12-22T05:15:11.362Z,1000.35
2022-12-22T05:16:11.437Z,1000.34
2022-12-22T05:17:11.473Z,1000.29
2022-12-22T05:18:11.307Z,1000.31
2022-12-22T05:19:11.293Z,1000.24
2022-12-22T05:20:11.292Z,1000.30
2022-12-22T05:21:11.284Z,1000.25
2022-12-22T05:22:11.273Z,1000.24
2022-12-22T05:23:11.277Z,1000.17
2022-12-22T05:24:11.242Z,1000.22
2022-12-22T05:25:11.226Z,1000.18
2022-12-22T05:26:11.235Z,1000.21
2022-12-22T05:27:11.207Z,1000.22
2022-12-22T05:28:11.208Z,1000.25
2022-12-22T05:29:11.183Z,1000.18
2022-12-22T05:30:11.177Z,1000.14
2022-12-22T05:31:11.248Z,1000.18
2022-12-22T05:32:11.161Z,1000.17
2022-12-22T05:33:11.148Z,1000.12
2022-12-22T05:34:11.137Z,1000.10
2022-12-22T05:35:11.126Z,1000.13
2022-12-22T05:36:11.106Z,1000.11
2022-12-22T05:37:11.140Z,1000.09
2022-12-22T05:38:11.130Z,1000.06
2022-12-22T05:39:11.099Z,1000.08
2022-12-22T05:40:11.060Z,1000.06
2022-12-22T05:41:11.056Z,1000.06
2022-12-22T05:42:11.035Z,1000.07
2022-12-22T05:43:11.048Z,999.99
2022-12-22T05:44:11.012Z,999.95
2022-12-22T05:45:11.012Z,1000.01
2022-12-22T05:46:11.143Z,1000.01
2022-12-22T05:47:10.985Z,1000.02
2022-12-22T05:48:10.967Z,1000.02
2022-12-22T05:49:11.013Z,999.99
2022-12-22T05:50:10.951Z,999.98
2022-12-22T05:51:10.971Z,999.98
2022-12-22T05:52:10.921Z,999.90
2022-12-22T05:53:10.909Z,999.90
2022-12-22T05:54:10.904Z,999.82
2022-12-22T05:55:10.925Z,999.82
2022-12-22T05:56:10.892Z,999.75
2022-12-22T05:57:10.867Z,999.80
2022-12-22T05:58:10.861Z,999.79
2022-12-22T05:59:10.841Z,999.79
2022-12-22T06:00:10.835Z,999.77
2022-12-22T06:01:10.826Z,999.77
2022-12-22T06:02:10.984Z,999.80
2022-12-22T06:03:10.966Z,999.72
2022-12-22T06:04:11.063Z,999.71
2022-12-22T06:05:10.789Z,999.74
2022-12-22T06:06:10.768Z,999.74
2022-12-22T06:07:10.762Z,999.67
2022-12-22T06:08:10.738Z,999.71
2022-12-22T06:09:10.736Z,999.75
2022-12-22T06:10:12.637Z,999.68
2022-12-22T06:11:10.729Z,999.65
2022-12-22T06:12:10.697Z,999.61
2022-12-22T06:13:10.684Z,999.64
2022-12-22T06:14:10.675Z,999.60
2022-12-22T06:15:10.670Z,999.64
2022-12-22T06:16:10.668Z,999.61
2022-12-22T06:17:10.633Z,999.64
2022-12-22T06:18:10.627Z,999.62
2022-12-22T06:19:10.609Z,999.55
2022-12-22T06:20:10.598Z,999.51
2022-12-22T06:21:10.602Z,999.55
2022-12-22T06:22:10.575Z,999.51
2022-12-22T06:23:10.565Z,999.48
2022-12-22T06:24:10.564Z,999.49
2022-12-22T06:25:17.180Z,999.44
2022-12-22T06:26:10.530Z,999.49
2022-12-22T06:27:10.543Z,999.41
2022-12-22T06:28:10.512Z,999.50
2022-12-22T06:29:10.503Z,999.40
2022-12-22T06:30:10.483Z,999.48
2022-12-22T06:31:10.526Z,999.40
2022-12-22T06:32:10.471Z,999.42
2022-12-22T06:33:10.463Z,999.37
2022-12-22T06:34:10.454Z,999.39
2022-12-22T06:35:10.431Z,999.38
2022-12-22T06:36:10.418Z,999.35
2022-12-22T06:37:10.405Z,999.38
2022-12-22T06:38:10.399Z,999.36
2022-12-22T06:39:10.383Z,999.33
2022-12-22T06:40:10.376Z,999.36
2022-12-22T06:41:10.372Z,999.37
2022-12-22T06:42:10.362Z,999.36
2022-12-22T06:43:10.896Z,999.33
2022-12-22T06:44:10.328Z,999.37
2022-12-22T06:45:10.328Z,999.42
2022-12-22T06:46:10.347Z,999.33
2022-12-22T06:47:10.301Z,999.36
2022-12-22T06:48:10.294Z,999.33
2022-12-22T06:49:10.270Z,999.32
2022-12-22T06:50:10.260Z,999.36
2022-12-22T06:51:10.260Z,999.32
2022-12-22T06:52:10.242Z,999.34
2022-12-22T06:53:10.223Z,999.34
2022-12-22T06:54:10.214Z,999.32
2022-12-22T06:55:10.213Z,999.31
2022-12-22T06:56:10.189Z,999.28
2022-12-22T06:57:10.194Z,999.26
2022-12-22T06:58:10.184Z,999.31
2022-12-22T06:59:12.188Z,999.21
2022-12-22T07:00:10.143Z,999.38
2022-12-22T07:01:12.146Z,999.26
2022-12-22T07:02:10.346Z,999.23
2022-12-22T07:03:10.271Z,999.27
2022-12-22T07:04:12.208Z,999.29
2022-12-22T07:05:10.087Z,999.23
2022-12-22T07:06:10.084Z,999.33
2022-12-22T07:07:12.069Z,999.31
2022-12-22T07:08:10.053Z,999.38
2022-12-22T07:09:10.042Z,999.41
2022-12-22T07:10:10.044Z,999.38
2022-12-22T07:11:10.023Z,999.34
2022-12-22T07:12:10.019Z,999.30
2022-12-22T07:13:10.000Z,999.27
2022-12-22T07:14:09.989Z,999.21
2022-12-22T07:15:10.009Z,999.23
2022-12-22T07:16:10.065Z,999.16
2022-12-22T07:17:09.960Z,999.23
2022-12-22T07:18:09.950Z,999.22
2022-12-22T07:19:09.954Z,999.10
2022-12-22T07:20:09.935Z,999.16
2022-12-22T07:21:09.914Z,999.18
2022-12-22T07:22:09.916Z,999.08
2022-12-22T07:23:09.886Z,999.01
2022-12-22T07:24:09.882Z,999.09
2022-12-22T07:25:09.871Z,999.04
2022-12-22T07:26:09.862Z,999.05
2022-12-22T07:27:09.854Z,999.07
2022-12-22T07:28:13.639Z,999.01
2022-12-22T07:29:09.830Z,999.05
2022-12-22T07:30:09.815Z,999.05
2022-12-22T07:31:09.855Z,999.05
2022-12-22T07:32:09.793Z,999.02
2022-12-22T07:33:09.783Z,999.00
2022-12-22T07:34:09.771Z,998.93
2022-12-22T07:35:09.752Z,998.98
2022-12-22T07:36:09.743Z,999.04
2022-12-22T07:37:09.734Z,999.02
2022-12-22T07:38:09.733Z,999.00
2022-12-22T07:39:09.707Z,998.96
2022-12-22T07:40:09.709Z,998.95
2022-12-22T07:41:09.695Z,999.00
2022-12-22T07:42:09.680Z,998.99
2022-12-22T07:43:09.684Z,999.01
2022-12-22T07:44:09.662Z,999.05
2022-12-22T07:45:09.649Z,998.97
2022-12-22T07:46:09.698Z,998.97
2022-12-22T07:47:09.648Z,998.98
2022-12-22T07:48:09.609Z,998.91
2022-12-22T07:49:09.597Z,998.90
2022-12-22T07:50:09.803Z,998.87
2022-12-22T07:51:09.609Z,998.85
2022-12-22T07:52:09.564Z,998.87
2022-12-22T07:53:09.559Z,998.82
2022-12-22T07:54:09.550Z,998.80
2022-12-22T07:55:09.550Z,998.76
2022-12-22T07:56:09.516Z,998.79
2022-12-22T07:57:09.531Z,998.74
2022-12-22T07:58:09.510Z,998.77
2022-12-22T07:59:09.491Z,998.78
2022-12-22T08:00:09.478Z,998.76
2022-12-22T08:01:09.475Z,998.80
2022-12-22T08:02:09.519Z,998.75
2022-12-22T08:03:09.705Z,998.76
2022-12-22T08:04:09.481Z,998.78
2022-12-22T08:05:09.537Z,998.77
2022-12-22T08:06:09.411Z,998.73
2022-12-22T08:07:09.402Z,998.76
2022-12-22T08:08:09.381Z,998.72
2022-12-22T08:09:09.385Z,998.76
2022-12-22T08:10:09.371Z,998.83
2022-12-22T08:11:09.359Z,998.74
2022-12-22T08:12:09.361Z,998.79
2022-12-22T08:13:09.403Z,998.74
2022-12-22T08:14:09.340Z,998.76
2022-12-22T08:15:09.307Z,998.73
2022-12-22T08:16:09.368Z,998.69
2022-12-22T08:17:09.291Z,998.66
2022-12-22T08:18:09.277Z,998.65
2022-12-22T08:19:09.295Z,998.69
2022-12-22T08:20:09.267Z,998.69
2022-12-22T08:21:09.234Z,998.62
2022-12-22T08:22:09.229Z,998.65
2022-12-22T08:23:09.227Z,998.68
2022-12-22T08:24:09.210Z,998.59
2022-12-22T08:25:09.191Z,998.66
2022-12-22T08:26:09.215Z,998.60
2022-12-22T08:27:09.185Z,998.58
2022-12-22T08:28:09.156Z,998.57
2022-12-22T08:29:09.149Z,998.57
2022-12-22T08:30:09.163Z,998.60
2022-12-22T08:31:09.206Z,998.65
2022-12-22T08:32:09.203Z,998.60
2022-12-22T08:33:09.129Z,998.63
2022-12-22T08:34:09.129Z,998.63
2022-12-22T08:35:09.104Z,998.55
2022-12-22T08:36:09.071Z,998.53
2022-12-22T08:37:09.056Z,998.50
2022-12-22T08:38:09.066Z,998.56
2022-12-22T08:39:09.037Z,998.50
2022-12-22T08:40:09.028Z,998.53
2022-12-22T08:41:09.011Z,998.49
2022-12-22T08:42:09.013Z,998.43
2022-12-22T08:43:08.995Z,998.51
2022-12-22T08:44:08.984Z,998.45
2022-12-22T08:45:08.966Z,998.46
2022-12-22T08:46:08.968Z,998.44
2022-12-22T08:47:16.470Z,998.41
2022-12-22T08:48:08.934Z,998.39
2022-12-22T08:49:08.920Z,998.39
2022-12-22T08:50:08.918Z,998.43
2022-12-22T08:51:08.926Z,998.34
2022-12-22T08:52:14.317Z,998.35
2022-12-22T08:53:23.452Z,998.43
2022-12-22T08:54:08.881Z,998.41
2022-12-22T08:55:08.856Z,998.40
2022-12-22T08:56:08.861Z,998.36
2022-12-22T08:57:08.840Z,998.33
2022-12-22T08:58:08.829Z,998.35
2022-12-22T08:59:08.816Z,998.42
2022-12-22T09:00:08.805Z,998.35
2022-12-22T09:01:08.922Z,998.40
2022-12-22T09:02:08.890Z,998.32
2022-12-22T09:03:08.928Z,998.31
2022-12-22T09:04:08.753Z,998.32
2022-12-22T09:05:08.753Z,998.32
2022-12-22T09:06:08.740Z,998.35
2022-12-22T09:07:08.756Z,998.33
2022-12-22T09:08:08.709Z,998.24
2022-12-22T09:09:08.701Z,998.26
2022-12-22T09:10:08.689Z,998.28
2022-12-22T09:11:08.679Z,998.24
2022-12-22T09:12:08.672Z,998.24
2022-12-22T09:13:08.668Z,998.14
2022-12-22T09:14:08.651Z,998.18
2022-12-22T09:15:08.629Z,998.17
2022-12-22T09:16:08.767Z,998.23
2022-12-22T09:17:08.611Z,998.21
2022-12-22T09:18:08.603Z,998.17
2022-12-22T09:19:08.643Z,998.15
2022-12-22T09:20:08.585Z,998.12
2022-12-22T09:21:08.572Z,998.19
2022-12-22T09:22:08.560Z,998.13
2022-12-22T09:23:08.579Z,998.14
2022-12-22T09:24:08.534Z,998.11
2022-12-22T09:25:08.528Z,998.06
2022-12-22T09:26:08.513Z,998.11
2022-12-22T09:27:08.501Z,998.10
2022-12-22T09:28:08.507Z,998.13
2022-12-22T09:29:08.485Z,998.03
2022-12-22T09:30:08.473Z,998.06
2022-12-22T09:31:08.455Z,998.05
2022-12-22T09:32:08.510Z,998.07
2022-12-22T09:33:08.430Z,998.03
2022-12-22T09:34:11.997Z,998.03
2022-12-22T09:35:08.409Z,998.05
2022-12-22T09:36:08.408Z,997.99
2022-12-22T09:37:08.381Z,998.03
2022-12-22T09:38:08.379Z,998.02
2022-12-22T09:39:08.404Z,997.88
2022-12-22T09:40:08.361Z,997.98
2022-12-22T09:41:08.353Z,997.99
2022-12-22T09:42:08.335Z,998.07
2022-12-22T09:43:08.320Z,997.97
2022-12-22T09:44:08.311Z,997.92
2022-12-22T09:45:12.436Z,997.98
2022-12-22T09:46:08.384Z,997.95
2022-12-22T09:47:08.278Z,997.90
2022-12-22T09:48:08.265Z,997.92
2022-12-22T09:49:08.260Z,997.94
2022-12-22T09:50:08.236Z,997.85
2022-12-22T09:51:08.225Z,997.82
2022-12-22T09:52:08.220Z,997.79
2022-12-22T09:53:08.210Z,997.82
2022-12-22T09:54:08.210Z,997.76
2022-12-22T09:55:08.219Z,997.86
2022-12-22T09:56:08.176Z,997.76
2022-12-22T09:57:08.170Z,997.81
2022-12-22T09:58:11.516Z,997.83
2022-12-22T09:59:08.142Z,997.77
2022-12-22T10:00:08.136Z,997.71
2022-12-22T10:01:08.165Z,997.75
2022-12-22T10:02:08.173Z,997.76
2022-12-22T10:03:08.181Z,997.76
2022-12-22T10:04:08.088Z,997.65
2022-12-22T10:05:08.084Z,997.71
2022-12-22T10:06:08.063Z,997.71
2022-12-22T10:07:08.048Z,997.68
2022-12-22T10:08:08.044Z,997.69
2022-12-22T10:09:28.850Z,997.66
2022-12-22T10:10:08.025Z,997.66
2022-12-22T10:11:08.045Z,997.57
2022-12-22T10:12:07.995Z,997.62
2022-12-22T10:13:07.984Z,997.67
2022-12-22T10:14:07.967Z,997.64
2022-12-22T10:15:07.963Z,997.67
2022-12-22T10:16:08.004Z,997.67
2022-12-22T10:17:08.102Z,997.65
2022-12-22T10:18:07.943Z,997.61
2022-12-22T10:19:07.917Z,997.70
2022-12-22T10:20:07.905Z,997.61
2022-12-22T10:21:07.905Z,997.64
2022-12-22T10:22:07.882Z,997.63
2022-12-22T10:23:07.865Z,997.62
2022-12-22T10:24:07.855Z,997.64
2022-12-22T10:25:07.849Z,997.57
2022-12-22T10:27:07.849Z,997.53
2022-12-22T10:28:07.834Z,997.51
2022-12-22T10:29:07.863Z,997.49
2022-12-22T10:30:07.792Z,997.46
2022-12-22T10:31:07.798Z,997.51
2022-12-22T10:32:08.019Z,997.44
2022-12-22T10:33:07.755Z,997.41
2022-12-22T10:34:07.745Z,997.40
2022-12-22T10:35:07.729Z,997.47
2022-12-22T10:36:07.734Z,997.26
2022-12-22T10:37:07.720Z,997.25
2022-12-22T10:38:21.042Z,997.30
2022-12-22T10:39:07.683Z,997.34
2022-12-22T10:40:07.686Z,997.30
2022-12-22T10:41:07.664Z,997.37
2022-12-22T10:42:07.658Z,997.34
2022-12-22T10:43:07.670Z,997.34
2022-12-22T10:44:07.635Z,997.33
2022-12-22T10:45:07.624Z,997.30
2022-12-22T10:46:07.728Z,997.33
2022-12-22T10:47:12.253Z,997.30
2022-12-22T10:48:07.584Z,997.27
2022-12-22T10:49:07.574Z,997.24
2022-12-22T10:50:07.567Z,997.26
2022-12-22T10:51:07.560Z,997.22
2022-12-22T10:52:07.537Z,997.26
2022-12-22T10:53:07.535Z,997.18
2022-12-22T10:54:07.528Z,997.23
2022-12-22T10:55:07.516Z,997.23
2022-12-22T10:56:07.500Z,997.24
2022-12-22T10:57:07.511Z,997.20
2022-12-22T10:58:07.469Z,997.21
2022-12-22T10:59:07.485Z,997.21
2022-12-22T11:00:07.447Z,997.22
2022-12-22T11:01:07.502Z,997.21
2022-12-22T11:02:07.815Z,997.21
2022-12-22T11:03:07.578Z,997.23
2022-12-22T11:04:07.508Z,997.18
2022-12-22T11:05:07.404Z,997.13
2022-12-22T11:06:07.398Z,997.19
2022-12-22T11:07:07.380Z,997.21
2022-12-22T11:08:07.369Z,997.19
2022-12-22T11:09:31.874Z,997.16
2022-12-22T11:10:07.340Z,997.24
2022-12-22T11:11:07.323Z,997.11
2022-12-22T11:12:07.321Z,997.20
2022-12-22T11:13:07.333Z,997.16
2022-12-22T11:14:07.322Z,997.06
2022-12-22T11:15:07.318Z,997.09
2022-12-22T11:16:07.284Z,997.03
2022-12-22T11:17:07.325Z,996.96
2022-12-22T11:18:07.247Z,996.96
2022-12-22T11:19:07.256Z,996.95
2022-12-22T11:20:07.253Z,996.98
2022-12-22T11:21:07.225Z,997.00
2022-12-22T11:22:07.204Z,996.92
2022-12-22T11:23:07.218Z,996.99
2022-12-22T11:24:07.186Z,996.95
2022-12-22T11:25:07.174Z,996.92
2022-12-22T11:26:07.163Z,996.94
2022-12-22T11:27:07.166Z,996.93
2022-12-22T11:28:07.148Z,996.92
2022-12-22T11:29:07.143Z,996.89
2022-12-22T11:30:07.139Z,996.91
2022-12-22T11:31:07.189Z,996.86
2022-12-22T11:32:07.097Z,996.83
2022-12-22T11:33:07.099Z,996.86
2022-12-22T11:34:07.069Z,996.87
2022-12-22T11:35:07.121Z,996.85
2022-12-22T11:36:07.050Z,996.92
2022-12-22T11:37:07.040Z,996.87
2022-12-22T11:38:07.027Z,996.88
2022-12-22T11:39:07.023Z,996.92
2022-12-22T11:40:07.006Z,996.90
2022-12-22T11:41:07.003Z,996.86
2022-12-22T11:42:06.980Z,996.82
2022-12-22T11:43:06.970Z,996.85
2022-12-22T11:44:06.954Z,996.82
2022-12-22T11:45:06.941Z,996.77
2022-12-22T11:46:07.065Z,996.80
2022-12-22T11:47:06.983Z,996.76
2022-12-22T11:48:06.913Z,996.83
2022-12-22T11:49:06.925Z,996.79
2022-12-22T11:51:02.054Z,996.75
2022-12-22T11:51:07.944Z,996.80
2022-12-22T11:52:06.869Z,996.80
2022-12-22T11:53:06.858Z,996.78
2022-12-22T11:54:10.898Z,996.72
2022-12-22T11:55:06.837Z,996.76
2022-12-22T11:56:06.830Z,996.74
2022-12-22T11:57:06.814Z,996.74
2022-12-22T11:58:06.800Z,996.70
2022-12-22T11:59:06.795Z,996.75
2022-12-22T12:00:06.788Z,996.74
2022-12-22T12:01:20.613Z,996.64
2022-12-22T12:02:06.828Z,996.75
2022-12-22T12:03:06.851Z,996.72
2022-12-22T12:04:06.882Z,996.77
2022-12-22T12:05:06.712Z,996.78
2022-12-22T12:06:06.735Z,996.68
2022-12-22T12:07:06.709Z,996.66
2022-12-22T12:08:06.684Z,996.72
2022-12-22T12:09:06.677Z,996.58
2022-12-22T12:10:06.663Z,996.69
2022-12-22T12:11:06.658Z,996.66
2022-12-22T12:12:06.638Z,996.73
2022-12-22T12:13:06.635Z,996.63
2022-12-22T12:14:06.622Z,996.63
2022-12-22T12:15:06.605Z,996.67
2022-12-22T12:16:06.657Z,996.65
2022-12-22T12:17:06.583Z,996.64
2022-12-22T12:18:06.573Z,996.64